sensor_id;sensor_type;location;lat;lon;timestamp;pressure;altitude;pressure_sealevel;temperature;humidity
67099;BME280;54288;53.046;5.668;2022-08-05T00:01:09;101809.66;;;17.20;84.28
67099;BME280;54288;53.046;5.668;2022-08-05T00:03:35;101807.13;;;17.17;83.91
67099;BME280;54288;53.046;5.668;2022-08-05T00:06:00;101815.06;;;17.17;83.83
67099;BME280;54288;53.046;5.668;2022-08-05T00:08:26;101806.31;;;17.15;84.37
67099;BME280;54288;53.046;5.668;2022-08-05T00:10:52;101785.41;;;17.06;83.79
67099;BME280;54288;53.046;5.668;2022-08-05T00:13:18;101799.47;;;17.08;83.71
67099;BME280;54288;53.046;5.668;2022-08-05T00:15:43;101806.47;;;17.09;84.13
67099;BME280;54288;53.046;5.668;2022-08-05T00:18:09;101800.34;;;17.08;84.29
67099;BME280;54288;53.046;5.668;2022-08-05T00:20:34;101804.63;;;17.12;84.90
67099;BME280;54288;53.046;5.668;2022-08-05T00:23:00;101799.38;;;17.11;83.92
67099;BME280;54288;53.046;5.668;2022-08-05T00:25:26;101782.72;;;17.07;84.65
67099;BME280;54288;53.046;5.668;2022-08-05T00:27:51;101793.16;;;17.12;83.68
67099;BME280;54288;53.046;5.668;2022-08-05T00:30:17;101785.94;;;17.17;83.52
67099;BME280;54288;53.046;5.668;2022-08-05T00:32:43;101784.50;;;17.07;84.27
67099;BME280;54288;53.046;5.668;2022-08-05T00:35:08;101783.84;;;17.00;84.90
67099;BME280;54288;53.046;5.668;2022-08-05T00:37:34;101812.47;;;17.15;85.31
67099;BME280;54288;53.046;5.668;2022-08-05T00:40:00;101807.09;;;17.18;83.88
67099;BME280;54288;53.046;5.668;2022-08-05T00:42:34;101802.75;;;17.16;84.04
67099;BME280;54288;53.046;5.668;2022-08-05T00:45:00;101810.38;;;17.25;83.97
67099;BME280;54288;53.046;5.668;2022-08-05T00:47:26;101809.38;;;17.29;83.98
67099;BME280;54288;53.046;5.668;2022-08-05T00:49:52;101810.44;;;17.23;83.07
67099;BME280;54288;53.046;5.668;2022-08-05T00:52:19;101800.91;;;17.18;83.38
67099;BME280;54288;53.046;5.668;2022-08-05T00:54:44;101811.28;;;17.24;82.85
67099;BME280;54288;53.046;5.668;2022-08-05T00:57:10;101803.50;;;17.19;83.20
67099;BME280;54288;53.046;5.668;2022-08-05T00:59:36;101813.13;;;17.22;83.17
67099;BME280;54288;53.046;5.668;2022-08-05T01:02:02;101817.50;;;17.23;83.29
67099;BME280;54288;53.046;5.668;2022-08-05T01:04:28;101821.88;;;17.24;83.19
67099;BME280;54288;53.046;5.668;2022-08-05T01:06:54;101811.53;;;17.16;83.06
67099;BME280;54288;53.046;5.668;2022-08-05T01:09:19;101818.44;;;17.22;83.60
67099;BME280;54288;53.046;5.668;2022-08-05T01:11:48;101814.94;;;17.20;83.12
67099;BME280;54288;53.046;5.668;2022-08-05T01:14:30;101815.88;;;17.19;83.70
67099;BME280;54288;53.046;5.668;2022-08-05T01:17:06;101825.44;;;17.23;83.30
67099;BME280;54288;53.046;5.668;2022-08-05T01:19:52;101817.72;;;17.17;83.18
67099;BME280;54288;53.046;5.668;2022-08-05T01:25:36;101825.66;;;17.17;82.95
67099;BME280;54288;53.046;5.668;2022-08-05T01:33:41;101799.63;;;17.03;83.01
67099;BME280;54288;53.046;5.668;2022-08-05T01:36:12;101811.00;;;17.05;83.40
67099;BME280;54288;53.046;5.668;2022-08-05T01:38:40;101804.19;;;16.98;83.85
67099;BME280;54288;53.046;5.668;2022-08-05T01:41:07;101793.09;;;16.86;83.94
67099;BME280;54288;53.046;5.668;2022-08-05T01:43:35;101811.63;;;16.86;84.59
67099;BME280;54288;53.046;5.668;2022-08-05T01:46:01;101824.75;;;16.90;84.45
67099;BME280;54288;53.046;5.668;2022-08-05T01:48:32;101810.59;;;16.91;84.11
67099;BME280;54288;53.046;5.668;2022-08-05T01:51:01;101795.59;;;16.92;83.63
67099;BME280;54288;53.046;5.668;2022-08-05T01:53:28;101794.09;;;16.83;83.74
67099;BME280;54288;53.046;5.668;2022-08-05T01:55:59;101800.25;;;16.84;83.86
67099;BME280;54288;53.046;5.668;2022-08-05T01:58:28;101821.25;;;16.88;84.36
67099;BME280;54288;53.046;5.668;2022-08-05T02:00:57;101810.06;;;16.80;84.22
67099;BME280;54288;53.046;5.668;2022-08-05T02:03:35;101810.94;;;16.81;84.46
67099;BME280;54288;53.046;5.668;2022-08-05T02:06:04;101795.19;;;16.76;84.53
67099;BME280;54288;53.046;5.668;2022-08-05T02:08:32;101794.88;;;16.87;84.14
67099;BME280;54288;53.046;5.668;2022-08-05T02:11:06;101795.63;;;16.90;83.88
67099;BME280;54288;53.046;5.668;2022-08-05T02:13:55;101798.31;;;16.89;84.00
67099;BME280;54288;53.046;5.668;2022-08-05T02:16:29;101805.53;;;16.84;84.48
67099;BME280;54288;53.046;5.668;2022-08-05T02:21:58;101808.28;;;16.81;84.67
67099;BME280;54288;53.046;5.668;2022-08-05T02:24:33;101803.88;;;16.80;84.64
67099;BME280;54288;53.046;5.668;2022-08-05T02:27:04;101804.84;;;16.77;84.99
67099;BME280;54288;53.046;5.668;2022-08-05T02:29:34;101800.44;;;16.78;84.89
67099;BME280;54288;53.046;5.668;2022-08-05T02:32:03;101790.03;;;16.72;84.46
67099;BME280;54288;53.046;5.668;2022-08-05T02:34:31;101812.72;;;16.79;84.74
67099;BME280;54288;53.046;5.668;2022-08-05T02:37:03;101808.41;;;16.76;84.94
67099;BME280;54288;53.046;5.668;2022-08-05T02:39:34;101810.81;;;16.84;85.01
67099;BME280;54288;53.046;5.668;2022-08-05T02:42:03;101821.13;;;16.93;84.86
67099;BME280;54288;53.046;5.668;2022-08-05T02:44:31;101829.00;;;16.94;84.87
67099;BME280;54288;53.046;5.668;2022-08-05T02:46:59;101839.44;;;17.00;85.06
67099;BME280;54288;53.046;5.668;2022-08-05T02:49:30;101836.78;;;17.00;84.38
67099;BME280;54288;53.046;5.668;2022-08-05T02:51:57;101834.91;;;17.04;84.39
67099;BME280;54288;53.046;5.668;2022-08-05T02:54:25;101819.09;;;17.01;84.17
67099;BME280;54288;53.046;5.668;2022-08-05T02:56:52;101827.66;;;17.09;84.56
67099;BME280;54288;53.046;5.668;2022-08-05T02:59:19;101820.56;;;17.11;84.28
67099;BME280;54288;53.046;5.668;2022-08-05T03:01:48;101809.03;;;17.12;84.73
67099;BME280;54288;53.046;5.668;2022-08-05T03:04:17;101825.81;;;17.12;83.30
67099;BME280;54288;53.046;5.668;2022-08-05T03:06:45;101815.47;;;17.05;83.91
67099;BME280;54288;53.046;5.668;2022-08-05T03:09:12;101820.63;;;17.08;84.08
67099;BME280;54288;53.046;5.668;2022-08-05T03:11:41;101817.19;;;17.06;84.05
67099;BME280;54288;53.046;5.668;2022-08-05T03:14:09;101823.47;;;17.02;84.39
67099;BME280;54288;53.046;5.668;2022-08-05T03:16:36;101814.78;;;16.98;84.46
67099;BME280;54288;53.046;5.668;2022-08-05T03:19:03;101807.19;;;16.88;84.52
67099;BME280;54288;53.046;5.668;2022-08-05T03:21:29;101822.94;;;16.91;84.41
67099;BME280;54288;53.046;5.668;2022-08-05T03:23:56;101808.28;;;16.81;84.65
67099;BME280;54288;53.046;5.668;2022-08-05T03:26:22;101810.81;;;16.84;84.78
67099;BME280;54288;53.046;5.668;2022-08-05T03:28:48;101800.47;;;16.76;84.60
67099;BME280;54288;53.046;5.668;2022-08-05T03:31:14;101802.19;;;16.77;84.06
67099;BME280;54288;53.046;5.668;2022-08-05T03:33:40;101807.47;;;16.77;84.09
67099;BME280;54288;53.046;5.668;2022-08-05T03:36:06;101813.44;;;16.85;84.19
67099;BME280;54288;53.046;5.668;2022-08-05T03:38:32;101797.75;;;16.79;84.24
67099;BME280;54288;53.046;5.668;2022-08-05T03:40:58;101804.56;;;16.86;84.40
67099;BME280;54288;53.046;5.668;2022-08-05T03:43:24;101801.69;;;16.94;84.71
67099;BME280;54288;53.046;5.668;2022-08-05T03:45:53;101793.22;;;16.83;83.75
67099;BME280;54288;53.046;5.668;2022-08-05T03:48:19;101795.06;;;16.81;84.33
67099;BME280;54288;53.046;5.668;2022-08-05T03:53:32;101795.59;;;16.63;84.56
67099;BME280;54288;53.046;5.668;2022-08-05T03:56:06;101786.25;;;16.51;85.46
67099;BME280;54288;53.046;5.668;2022-08-05T03:58:36;101795.69;;;16.60;85.73
67099;BME280;54288;53.046;5.668;2022-08-05T04:01:06;101781.94;;;16.49;84.37
67099;BME280;54288;53.046;5.668;2022-08-05T04:03:34;101782.91;;;16.45;85.38
67099;BME280;54288;53.046;5.668;2022-08-05T04:06:04;101792.88;;;16.35;85.44
67099;BME280;54288;53.046;5.668;2022-08-05T04:08:31;101790.19;;;16.38;86.14
67099;BME280;54288;53.046;5.668;2022-08-05T04:10:58;101797.25;;;16.36;85.75
67099;BME280;54288;53.046;5.668;2022-08-05T04:13:25;101799.81;;;16.41;85.50
67099;BME280;54288;53.046;5.668;2022-08-05T04:15:51;101810.28;;;16.44;85.19
67099;BME280;54288;53.046;5.668;2022-08-05T04:18:17;101813.09;;;16.36;85.25
67099;BME280;54288;53.046;5.668;2022-08-05T04:20:43;101827.25;;;16.35;86.05
67099;BME280;54288;53.046;5.668;2022-08-05T04:23:09;101823.84;;;16.30;85.96
67099;BME280;54288;53.046;5.668;2022-08-05T04:25:35;101829.91;;;16.34;87.03
67099;BME280;54288;53.046;5.668;2022-08-05T04:28:01;101814.22;;;16.28;86.87
67099;BME280;54288;53.046;5.668;2022-08-05T04:30:27;101828.28;;;16.30;87.43
67099;BME280;54288;53.046;5.668;2022-08-05T04:32:52;101834.34;;;16.33;87.54
67099;BME280;54288;53.046;5.668;2022-08-05T04:35:18;101822.16;;;16.28;86.80
67099;BME280;54288;53.046;5.668;2022-08-05T04:37:43;101840.63;;;16.29;86.81
67099;BME280;54288;53.046;5.668;2022-08-05T04:40:10;101846.69;;;16.33;87.53
67099;BME280;54288;53.046;5.668;2022-08-05T04:42:35;101843.97;;;16.36;87.20
67099;BME280;54288;53.046;5.668;2022-08-05T04:45:02;101826.34;;;16.35;87.80
67099;BME280;54288;53.046;5.668;2022-08-05T04:47:27;101839.50;;;16.39;87.10
67099;BME280;54288;53.046;5.668;2022-08-05T04:49:53;101836.09;;;16.34;86.79
67099;BME280;54288;53.046;5.668;2022-08-05T04:52:18;101841.25;;;16.39;87.26
67099;BME280;54288;53.046;5.668;2022-08-05T04:54:44;101828.03;;;16.39;86.96
67099;BME280;54288;53.046;5.668;2022-08-05T04:57:10;101846.31;;;16.48;86.40
67099;BME280;54288;53.046;5.668;2022-08-05T04:59:35;101848.66;;;16.57;86.08
67099;BME280;54288;53.046;5.668;2022-08-05T05:02:01;101844.13;;;16.62;86.10
67099;BME280;54288;53.046;5.668;2022-08-05T05:04:27;101850.94;;;16.69;86.52
67099;BME280;54288;53.046;5.668;2022-08-05T05:06:52;101840.38;;;16.69;86.25
67099;BME280;54288;53.046;5.668;2022-08-05T05:09:18;101835.34;;;16.61;85.93
67099;BME280;54288;53.046;5.668;2022-08-05T05:11:44;101845.22;;;16.55;85.63
67099;BME280;54288;53.046;5.668;2022-08-05T05:14:10;101843.69;;;16.46;85.12
67099;BME280;54288;53.046;5.668;2022-08-05T05:16:36;101842.97;;;16.41;86.31
67099;BME280;54288;53.046;5.668;2022-08-05T05:19:02;101826.44;;;16.33;86.49
67099;BME280;54288;53.046;5.668;2022-08-05T05:21:27;101829.91;;;16.34;87.27
67099;BME280;54288;53.046;5.668;2022-08-05T05:23:53;101832.63;;;16.63;86.01
67099;BME280;54288;53.046;5.668;2022-08-05T05:26:19;101834.16;;;16.99;84.50
67099;BME280;54288;53.046;5.668;2022-08-05T05:28:45;101821.75;;;17.01;83.60
67099;BME280;54288;53.046;5.668;2022-08-05T05:31:10;101826.97;;;17.04;84.10
67099;BME280;54288;53.046;5.668;2022-08-05T05:33:36;101825.00;;;17.09;83.86
67099;BME280;54288;53.046;5.668;2022-08-05T05:36:01;101822.44;;;17.07;84.37
67099;BME280;54288;53.046;5.668;2022-08-05T05:38:27;101821.47;;;17.36;82.98
67099;BME280;54288;53.046;5.668;2022-08-05T05:40:54;101835.38;;;17.70;81.25
67099;BME280;54288;53.046;5.668;2022-08-05T05:43:20;101839.38;;;17.83;81.23
67099;BME280;54288;53.046;5.668;2022-08-05T05:45:47;101842.97;;;18.05;80.25
67099;BME280;54288;53.046;5.668;2022-08-05T05:48:13;101826.31;;;18.26;79.46
67099;BME280;54288;53.046;5.668;2022-08-05T05:50:38;101825.16;;;18.57;77.90
67099;BME280;54288;53.046;5.668;2022-08-05T05:53:06;101824.72;;;18.91;77.21
67099;BME280;54288;53.046;5.668;2022-08-05T05:55:34;101825.59;;;19.13;76.15
67099;BME280;54288;53.046;5.668;2022-08-05T05:57:59;101825.22;;;19.23;75.31
67099;BME280;54288;53.046;5.668;2022-08-05T06:00:25;101830.13;;;19.32;75.15
67099;BME280;54288;53.046;5.668;2022-08-05T06:02:51;101831.03;;;19.53;74.59
67099;BME280;54288;53.046;5.668;2022-08-05T06:05:17;101823.19;;;19.71;74.17
67099;BME280;54288;53.046;5.668;2022-08-05T06:07:44;101828.97;;;20.01;73.42
67099;BME280;54288;53.046;5.668;2022-08-05T06:10:11;101833.72;;;20.14;72.86
67099;BME280;54288;53.046;5.668;2022-08-05T06:12:38;101836.91;;;20.42;71.50
67099;BME280;54288;53.046;5.668;2022-08-05T06:15:04;101822.03;;;20.57;71.35
67099;BME280;54288;53.046;5.668;2022-08-05T06:17:31;101822.09;;;20.74;70.65
67099;BME280;54288;53.046;5.668;2022-08-05T06:19:57;101829.31;;;20.90;70.35
67099;BME280;54288;53.046;5.668;2022-08-05T06:22:28;101829.03;;;21.15;69.33
67099;BME280;54288;53.046;5.668;2022-08-05T06:24:54;101825.47;;;21.33;68.35
67099;BME280;54288;53.046;5.668;2022-08-05T06:27:19;101836.22;;;21.48;68.76
67099;BME280;54288;53.046;5.668;2022-08-05T06:29:45;101830.81;;;21.68;66.70
67099;BME280;54288;53.046;5.668;2022-08-05T06:32:11;101833.28;;;21.71;65.37
67099;BME280;54288;53.046;5.668;2022-08-05T06:34:37;101837.78;;;21.88;66.21
67099;BME280;54288;53.046;5.668;2022-08-05T06:37:02;101834.31;;;22.03;65.94
67099;BME280;54288;53.046;5.668;2022-08-05T06:39:28;101830.38;;;22.44;63.29
67099;BME280;54288;53.046;5.668;2022-08-05T06:41:55;101830.69;;;22.70;63.65
67099;BME280;54288;53.046;5.668;2022-08-05T06:44:22;101820.69;;;23.05;60.39
67099;BME280;54288;53.046;5.668;2022-08-05T06:46:48;101837.25;;;22.96;59.91
67099;BME280;54288;53.046;5.668;2022-08-05T06:49:14;101845.78;;;22.22;61.73
67099;BME280;54288;53.046;5.668;2022-08-05T06:51:39;101832.63;;;21.66;63.34
67099;BME280;54288;53.046;5.668;2022-08-05T06:54:05;101836.25;;;21.65;63.34
67099;BME280;54288;53.046;5.668;2022-08-05T06:56:31;101845.47;;;22.11;63.37
67099;BME280;54288;53.046;5.668;2022-08-05T06:58:57;101840.47;;;22.37;61.15
67099;BME280;54288;53.046;5.668;2022-08-05T07:01:23;101846.50;;;22.58;60.29
67099;BME280;54288;53.046;5.668;2022-08-05T07:03:49;101850.16;;;22.72;59.74
67099;BME280;54288;53.046;5.668;2022-08-05T07:06:15;101857.22;;;22.89;58.99
67099;BME280;54288;53.046;5.668;2022-08-05T07:08:42;101856.25;;;22.74;58.16
67099;BME280;54288;53.046;5.668;2022-08-05T07:11:08;101867.97;;;22.22;59.67
67099;BME280;54288;53.046;5.668;2022-08-05T07:13:34;101856.47;;;22.05;61.93
67099;BME280;54288;53.046;5.668;2022-08-05T07:16:18;101859.25;;;23.01;60.39
67099;BME280;54288;53.046;5.668;2022-08-05T07:19:03;101872.25;;;23.69;59.37
67099;BME280;54288;53.046;5.668;2022-08-05T07:21:29;101886.72;;;23.03;57.57
67099;BME280;54288;53.046;5.668;2022-08-05T07:23:55;101886.75;;;22.04;60.48
67099;BME280;54288;53.046;5.668;2022-08-05T07:26:21;101892.50;;;21.24;62.32
67099;BME280;54288;53.046;5.668;2022-08-05T07:28:46;101900.72;;;21.01;63.33
67099;BME280;54288;53.046;5.668;2022-08-05T07:31:12;101913.91;;;20.84;64.05
67099;BME280;54288;53.046;5.668;2022-08-05T07:33:38;101910.50;;;21.37;63.48
67099;BME280;54288;53.046;5.668;2022-08-05T07:36:04;101897.72;;;21.98;59.28
67099;BME280;54288;53.046;5.668;2022-08-05T07:38:30;101899.28;;;22.53;57.94
67099;BME280;54288;53.046;5.668;2022-08-05T07:40:56;101910.28;;;22.79;56.98
67099;BME280;54288;53.046;5.668;2022-08-05T07:43:21;101914.28;;;22.88;55.21
67099;BME280;54288;53.046;5.668;2022-08-05T07:45:47;101912.78;;;23.15;53.94
67099;BME280;54288;53.046;5.668;2022-08-05T07:48:13;101909.16;;;23.16;52.48
67099;BME280;54288;53.046;5.668;2022-08-05T07:50:38;101931.25;;;22.54;54.08
67099;BME280;54288;53.046;5.668;2022-08-05T07:53:04;101925.59;;;22.93;54.53
67099;BME280;54288;53.046;5.668;2022-08-05T07:55:30;101904.22;;;23.41;52.66
67099;BME280;54288;53.046;5.668;2022-08-05T07:57:56;101917.97;;;23.64;52.86
67099;BME280;54288;53.046;5.668;2022-08-05T08:00:22;101912.88;;;23.75;51.86
67099;BME280;54288;53.046;5.668;2022-08-05T08:02:49;101926.44;;;23.41;51.72
67099;BME280;54288;53.046;5.668;2022-08-05T08:05:15;101911.56;;;23.05;53.01
67099;BME280;54288;53.046;5.668;2022-08-05T08:07:41;101925.94;;;23.35;52.81
67099;BME280;54288;53.046;5.668;2022-08-05T08:10:07;101922.75;;;22.96;51.62
67099;BME280;54288;53.046;5.668;2022-08-05T08:12:32;101928.94;;;23.29;52.24
67099;BME280;54288;53.046;5.668;2022-08-05T08:14:58;101919.56;;;23.53;52.50
67099;BME280;54288;53.046;5.668;2022-08-05T08:17:24;101929.34;;;23.83;50.54
67099;BME280;54288;53.046;5.668;2022-08-05T08:19:50;101929.72;;;23.77;50.47
67099;BME280;54288;53.046;5.668;2022-08-05T08:22:15;101932.56;;;23.74;49.17
67099;BME280;54288;53.046;5.668;2022-08-05T08:24:41;101942.81;;;23.35;50.51
67099;BME280;54288;53.046;5.668;2022-08-05T08:27:07;101923.00;;;23.55;50.05
67099;BME280;54288;53.046;5.668;2022-08-05T08:29:32;101934.00;;;23.80;49.64
67099;BME280;54288;53.046;5.668;2022-08-05T08:31:58;101931.34;;;23.64;48.06
67099;BME280;54288;53.046;5.668;2022-08-05T08:34:25;101937.97;;;24.04;48.42
67099;BME280;54288;53.046;5.668;2022-08-05T08:36:51;101933.16;;;23.95;45.60
67099;BME280;54288;53.046;5.668;2022-08-05T08:39:17;101939.00;;;24.01;44.32
67099;BME280;54288;53.046;5.668;2022-08-05T08:41:47;101932.63;;;24.04;44.72
67099;BME280;54288;53.046;5.668;2022-08-05T08:44:16;101937.88;;;24.05;41.81
67099;BME280;54288;53.046;5.668;2022-08-05T08:46:43;101948.31;;;24.10;41.90
67099;BME280;54288;53.046;5.668;2022-08-05T08:49:13;101946.94;;;24.03;42.71
67099;BME280;54288;53.046;5.668;2022-08-05T08:51:45;101953.69;;;24.10;40.84
67099;BME280;54288;53.046;5.668;2022-08-05T08:54:12;101954.06;;;24.18;38.65
67099;BME280;54288;53.046;5.668;2022-08-05T08:56:38;101956.78;;;24.02;38.66
67099;BME280;54288;53.046;5.668;2022-08-05T08:59:04;101962.44;;;23.98;39.79
67099;BME280;54288;53.046;5.668;2022-08-05T09:01:31;101964.41;;;24.24;41.14
67099;BME280;54288;53.046;5.668;2022-08-05T09:03:57;101957.94;;;24.28;40.93
67099;BME280;54288;53.046;5.668;2022-08-05T09:06:28;101967.16;;;24.38;40.06
67099;BME280;54288;53.046;5.668;2022-08-05T09:08:54;101969.41;;;24.00;41.05
67099;BME280;54288;53.046;5.668;2022-08-05T09:11:20;101962.47;;;24.12;40.44
67099;BME280;54288;53.046;5.668;2022-08-05T09:13:46;101961.06;;;24.20;40.09
67099;BME280;54288;53.046;5.668;2022-08-05T09:16:12;101967.41;;;24.33;39.63
67099;BME280;54288;53.046;5.668;2022-08-05T09:18:38;101967.09;;;24.24;38.23
67099;BME280;54288;53.046;5.668;2022-08-05T09:21:04;101956.94;;;24.15;39.11
67099;BME280;54288;53.046;5.668;2022-08-05T09:23:30;101968.41;;;24.46;38.70
67099;BME280;54288;53.046;5.668;2022-08-05T09:26:12;101955.03;;;24.17;37.92
67099;BME280;54288;53.046;5.668;2022-08-05T09:28:42;101966.81;;;23.99;38.76
67099;BME280;54288;53.046;5.668;2022-08-05T09:31:12;101961.47;;;23.83;38.56
67099;BME280;54288;53.046;5.668;2022-08-05T09:34:06;101960.88;;;23.94;40.97
67099;BME280;54288;53.046;5.668;2022-08-05T09:39:10;101971.47;;;24.40;35.84
67099;BME280;54288;53.046;5.668;2022-08-05T09:41:55;101965.88;;;24.59;35.26
67099;BME280;54288;53.046;5.668;2022-08-05T09:47:14;101975.28;;;23.76;35.96
67099;BME280;54288;53.046;5.668;2022-08-05T09:54:58;101989.16;;;23.82;35.19
67099;BME280;54288;53.046;5.668;2022-08-05T09:57:41;101996.59;;;24.08;37.20
67099;BME280;54288;53.046;5.668;2022-08-05T10:02:38;102008.69;;;24.45;37.07
67099;BME280;54288;53.046;5.668;2022-08-05T10:05:16;102003.78;;;24.67;37.61
67099;BME280;54288;53.046;5.668;2022-08-05T10:07:54;102009.53;;;24.45;38.58
67099;BME280;54288;53.046;5.668;2022-08-05T10:10:23;102001.09;;;24.37;38.96
67099;BME280;54288;53.046;5.668;2022-08-05T10:12:53;102008.41;;;24.04;38.79
67099;BME280;54288;53.046;5.668;2022-08-05T10:15:28;102000.22;;;24.07;40.28
67099;BME280;54288;53.046;5.668;2022-08-05T10:18:08;102007.28;;;24.08;39.98
67099;BME280;54288;53.046;5.668;2022-08-05T10:20:38;102010.88;;;24.23;39.50
67099;BME280;54288;53.046;5.668;2022-08-05T10:23:04;102011.88;;;23.91;40.00
67099;BME280;54288;53.046;5.668;2022-08-05T10:25:30;102013.41;;;23.79;40.87
67099;BME280;54288;53.046;5.668;2022-08-05T10:27:56;101996.84;;;23.73;41.66
67099;BME280;54288;53.046;5.668;2022-08-05T10:30:22;102013.78;;;23.58;40.23
67099;BME280;54288;53.046;5.668;2022-08-05T10:32:48;102026.72;;;23.81;40.41
67099;BME280;54288;53.046;5.668;2022-08-05T10:35:14;102025.09;;;23.94;40.23
67099;BME280;54288;53.046;5.668;2022-08-05T10:37:41;102021.31;;;23.98;39.75
67099;BME280;54288;53.046;5.668;2022-08-05T10:40:17;102024.38;;;23.75;40.19
67099;BME280;54288;53.046;5.668;2022-08-05T10:42:49;102023.97;;;23.98;41.70
67099;BME280;54288;53.046;5.668;2022-08-05T10:45:25;102034.81;;;24.10;39.63
67099;BME280;54288;53.046;5.668;2022-08-05T10:47:51;102036.47;;;24.13;39.58
67099;BME280;54288;53.046;5.668;2022-08-05T10:50:17;102022.84;;;24.02;39.89
67099;BME280;54288;53.046;5.668;2022-08-05T10:52:51;102044.25;;;24.02;41.50
67099;BME280;54288;53.046;5.668;2022-08-05T10:55:22;102037.25;;;23.99;41.57
67099;BME280;54288;53.046;5.668;2022-08-05T10:58:06;102046.78;;;23.89;42.79
67099;BME280;54288;53.046;5.668;2022-08-05T11:00:33;102064.88;;;23.84;41.78
67099;BME280;54288;53.046;5.668;2022-08-05T11:05:32;102080.91;;;23.69;42.04
67099;BME280;54288;53.046;5.668;2022-08-05T11:08:00;102091.03;;;23.47;41.67
67099;BME280;54288;53.046;5.668;2022-08-05T11:10:27;102094.94;;;23.24;43.31
67099;BME280;54288;53.046;5.668;2022-08-05T11:12:54;102106.81;;;23.19;43.29
67099;BME280;54288;53.046;5.668;2022-08-05T11:15:29;102105.41;;;22.95;44.51
67099;BME280;54288;53.046;5.668;2022-08-05T11:18:28;102103.88;;;22.89;45.76
67099;BME280;54288;53.046;5.668;2022-08-05T11:20:54;102106.94;;;22.99;46.13
67099;BME280;54288;53.046;5.668;2022-08-05T11:23:24;102116.47;;;22.87;45.82
67099;BME280;54288;53.046;5.668;2022-08-05T11:26:08;102122.97;;;22.82;45.71
67099;BME280;54288;53.046;5.668;2022-08-05T11:33:31;102137.34;;;22.79;45.77
67099;BME280;54288;53.046;5.668;2022-08-05T11:36:09;102129.25;;;22.64;44.97
67099;BME280;54288;53.046;5.668;2022-08-05T11:43:30;102138.66;;;22.54;46.34
67099;BME280;54288;53.046;5.668;2022-08-05T11:45:57;102129.56;;;22.58;45.57
67099;BME280;54288;53.046;5.668;2022-08-05T11:48:23;102130.63;;;22.54;46.43
67099;BME280;54288;53.046;5.668;2022-08-05T11:50:51;102137.44;;;22.61;45.77
67099;BME280;54288;53.046;5.668;2022-08-05T11:53:18;102145.44;;;22.61;46.04
67099;BME280;54288;53.046;5.668;2022-08-05T11:55:57;102155.22;;;22.96;44.92
67099;BME280;54288;53.046;5.668;2022-08-05T11:58:44;102155.13;;;22.97;44.62
67099;BME280;54288;53.046;5.668;2022-08-05T12:01:16;102149.38;;;22.88;44.63
67099;BME280;54288;53.046;5.668;2022-08-05T12:03:51;102145.59;;;22.75;44.94
67099;BME280;54288;53.046;5.668;2022-08-05T12:06:19;102157.72;;;22.82;44.47
67099;BME280;54288;53.046;5.668;2022-08-05T12:08:47;102146.81;;;22.86;44.56
67099;BME280;54288;53.046;5.668;2022-08-05T12:13:59;102153.97;;;23.37;42.95
67099;BME280;54288;53.046;5.668;2022-08-05T12:16:27;102150.94;;;23.60;40.38
67099;BME280;54288;53.046;5.668;2022-08-05T12:18:53;102140.53;;;23.38;41.75
67099;BME280;54288;53.046;5.668;2022-08-05T12:21:32;102151.94;;;23.42;42.61
67099;BME280;54288;53.046;5.668;2022-08-05T12:26:40;102169.97;;;22.86;43.14
67099;BME280;54288;53.046;5.668;2022-08-05T12:29:09;102173.25;;;22.74;42.34
67099;BME280;54288;53.046;5.668;2022-08-05T12:31:36;102176.41;;;22.82;43.30
67099;BME280;54288;53.046;5.668;2022-08-05T12:34:05;102170.06;;;22.84;42.55
67099;BME280;54288;53.046;5.668;2022-08-05T12:36:32;102180.63;;;23.04;43.37
67099;BME280;54288;53.046;5.668;2022-08-05T12:38:58;102176.28;;;23.02;41.08
67099;BME280;54288;53.046;5.668;2022-08-05T12:41:30;102175.31;;;22.86;43.40
67099;BME280;54288;53.046;5.668;2022-08-05T12:43:59;102182.38;;;22.87;43.58
67099;BME280;54288;53.046;5.668;2022-08-05T12:46:28;102175.38;;;22.84;47.91
67099;BME280;54288;53.046;5.668;2022-08-05T12:49:21;102186.00;;;22.86;49.47
67099;BME280;54288;53.046;5.668;2022-08-05T12:51:48;102206.88;;;22.61;50.88
67099;BME280;54288;53.046;5.668;2022-08-05T12:54:22;102197.81;;;22.63;50.43
67099;BME280;54288;53.046;5.668;2022-08-05T12:56:53;102206.41;;;22.51;49.97
67099;BME280;54288;53.046;5.668;2022-08-05T12:59:20;102221.84;;;22.63;50.46
67099;BME280;54288;53.046;5.668;2022-08-05T13:02:05;102204.22;;;22.78;49.01
67099;BME280;54288;53.046;5.668;2022-08-05T13:04:38;102209.72;;;22.75;49.21
67099;BME280;54288;53.046;5.668;2022-08-05T13:07:12;102220.00;;;22.65;48.95
67099;BME280;54288;53.046;5.668;2022-08-05T13:09:42;102225.31;;;22.65;49.49
67099;BME280;54288;53.046;5.668;2022-08-05T13:12:12;102230.13;;;22.76;48.88
67099;BME280;54288;53.046;5.668;2022-08-05T13:14:45;102230.22;;;22.74;48.39
67099;BME280;54288;53.046;5.668;2022-08-05T13:17:23;102229.06;;;22.80;48.09
67099;BME280;54288;53.046;5.668;2022-08-05T13:19:59;102246.34;;;22.73;47.32
67099;BME280;54288;53.046;5.668;2022-08-05T13:22:26;102247.84;;;22.60;47.45
67099;BME280;54288;53.046;5.668;2022-08-05T13:24:51;102245.75;;;22.48;45.58
67099;BME280;54288;53.046;5.668;2022-08-05T13:27:25;102244.44;;;22.56;46.84
67099;BME280;54288;53.046;5.668;2022-08-05T13:29:51;102241.84;;;22.55;46.67
67099;BME280;54288;53.046;5.668;2022-08-05T13:32:16;102246.19;;;22.57;45.88
67099;BME280;54288;53.046;5.668;2022-08-05T13:34:42;102256.00;;;22.57;45.17
67099;BME280;54288;53.046;5.668;2022-08-05T13:37:08;102249.72;;;22.58;44.74
67099;BME280;54288;53.046;5.668;2022-08-05T13:39:34;102239.19;;;22.55;43.87
67099;BME280;54288;53.046;5.668;2022-08-05T13:41:59;102219.53;;;22.37;42.66